createdAt,value
2023-05-18T00:02:33.793Z,3.6
2023-05-18T00:08:24.304Z,4
2023-05-18T00:14:14.823Z,4.4
2023-05-18T00:20:06.248Z,3.6
2023-05-18T00:25:58.885Z,3.8
2023-05-18T00:31:53.343Z,3.7
2023-05-18T00:37:45.710Z,3.8
2023-05-18T00:43:37.974Z,3.8
2023-05-18T00:49:30.309Z,4.2
2023-05-18T00:55:21.733Z,4.2
2023-05-18T01:01:13.432Z,4
2023-05-18T01:07:07.412Z,3.8
2023-05-18T01:13:00.552Z,3.9
2023-05-18T01:18:53.277Z,5.6
2023-05-18T01:24:46.321Z,4.7
2023-05-18T01:30:39.380Z,4.3
2023-05-18T01:36:32.326Z,3.9
2023-05-18T01:42:24.814Z,3.9
2023-05-18T01:48:18.104Z,4.1
2023-05-18T01:54:10.418Z,3.8
2023-05-18T02:00:04.279Z,4.1
2023-05-18T02:05:55.918Z,3.6
2023-05-18T02:11:47.933Z,3.6
2023-05-18T02:17:40.317Z,4
2023-05-18T02:23:32.647Z,4.2
2023-05-18T02:29:24.670Z,4.1
2023-05-18T02:35:17.668Z,3.7
2023-05-18T02:41:11.131Z,4.1
2023-05-18T02:47:05.126Z,4.2
2023-05-18T02:52:56.840Z,4.1
2023-05-18T02:58:48.282Z,4.2
2023-05-18T03:04:41.459Z,4.1
2023-05-18T03:10:33.166Z,3.7
2023-05-18T03:16:25.393Z,3.9
2023-05-18T03:22:18.288Z,4.1
2023-05-18T03:28:11.127Z,4.2
2023-05-18T03:34:02.884Z,4
2023-05-18T03:39:55.618Z,4.2
2023-05-18T03:45:48.149Z,3.8
2023-05-18T03:51:41.202Z,4.1
2023-05-18T03:57:36.123Z,4.4
2023-05-18T04:03:28.836Z,4.1
2023-05-18T04:09:21.747Z,4.4
2023-05-18T04:15:14.125Z,4.5
2023-05-18T04:21:06.053Z,4.7
2023-05-18T04:26:57.812Z,4.5
2023-05-18T04:32:50.343Z,4.8
2023-05-18T04:38:42.240Z,4.2
2023-05-18T04:44:34.298Z,4.4
2023-05-18T04:50:28.104Z,4.5
2023-05-18T04:56:19.960Z,4.3
2023-05-18T05:02:12.049Z,4.5
2023-05-18T05:08:04.314Z,4.4
2023-05-18T05:13:56.814Z,4.2
2023-05-18T05:19:48.859Z,4.4
2023-05-18T05:25:41.086Z,4.7
2023-05-18T05:31:33.214Z,4.8
2023-05-18T05:37:25.536Z,5.5
2023-05-18T05:43:18.647Z,5.3
2023-05-18T05:49:13.479Z,5.2
2023-05-18T05:55:07.146Z,5.4
2023-05-18T06:00:59.983Z,4.7
2023-05-18T06:06:53.323Z,4.6
2023-05-18T06:12:45.523Z,4.6
2023-05-18T06:18:38.762Z,4.7
2023-05-18T06:24:27.246Z,5.4
2023-05-18T06:30:18.520Z,4.7
2023-05-18T06:36:15.473Z,5
2023-05-18T06:42:06.713Z,4.2
2023-05-18T06:47:59.885Z,4.1
2023-05-18T06:53:52.183Z,4.3
2023-05-18T06:59:44.259Z,4.2
2023-05-18T07:05:41.388Z,4
2023-05-18T07:11:36.363Z,4
2023-05-18T07:17:28.792Z,4.1
2023-05-18T07:23:21.951Z,4.7
2023-05-18T07:29:14.355Z,3.7
2023-05-18T07:35:06.427Z,4.3
2023-05-18T07:41:08.765Z,3.9
2023-05-18T07:46:59.029Z,4.6
2023-05-18T07:52:51.654Z,4.2
2023-05-18T07:58:43.893Z,4.4
2023-05-18T08:04:38.121Z,4.1
2023-05-18T08:10:30.751Z,4.4
2023-05-18T08:16:23.888Z,4
2023-05-18T08:23:25.396Z,3.9
2023-05-18T08:29:18.455Z,3.6
2023-05-18T08:35:10.570Z,3.7
2023-05-18T08:41:03.045Z,3.7
2023-05-18T08:46:59.582Z,3.8
2023-05-18T08:52:51.215Z,3.7
2023-05-18T08:58:43.291Z,3.4
2023-05-18T09:04:36.504Z,3.8
2023-05-18T09:10:28.874Z,3.6
2023-05-18T09:16:21.635Z,3.5
2023-05-18T09:22:14.075Z,3.1
2023-05-18T09:28:06.291Z,3
2023-05-18T09:33:59.058Z,3.2
2023-05-18T09:39:50.961Z,3.2
2023-05-18T09:45:42.822Z,2.8
2023-05-18T09:51:35.354Z,2.8
2023-05-18T09:57:27.427Z,2.9
2023-05-18T10:03:19.012Z,2.7
2023-05-18T10:10:16.401Z,2.9
2023-05-18T10:16:07.296Z,2.6
2023-05-18T10:21:59.046Z,2.9
2023-05-18T10:27:51.007Z,2.6
2023-05-18T10:33:43.630Z,3
2023-05-18T10:39:35.025Z,2.8
2023-05-18T10:45:27.136Z,2.6
2023-05-18T10:51:20.376Z,2.8
2023-05-18T10:57:12.067Z,2.8
2023-05-18T11:03:03.954Z,2.9
2023-05-18T11:08:56.304Z,2.7
2023-05-18T11:14:46.056Z,2.6
2023-05-18T11:20:38.860Z,3.1
2023-05-18T11:26:30.224Z,2.5
2023-05-18T11:32:36.077Z,2.7
2023-05-18T11:38:26.696Z,2.7
2023-05-18T11:44:19.785Z,2.5
2023-05-18T11:50:12.133Z,2.9
2023-05-18T11:56:04.781Z,2.6
2023-05-18T12:01:57.980Z,2.6
2023-05-18T12:07:49.304Z,2.6
2023-05-18T12:13:40.848Z,2.7
2023-05-18T12:19:31.582Z,2.6
2023-05-18T12:25:23.874Z,2.7
2023-05-18T12:31:16.014Z,2.3
2023-05-18T12:37:08.063Z,2.5
2023-05-18T12:43:00.175Z,2.2
2023-05-18T12:48:52.248Z,2.1
2023-05-18T12:54:44.307Z,2.7
2023-05-18T13:00:36.414Z,3
2023-05-18T13:06:31.185Z,2.4
2023-05-18T13:12:23.046Z,2.2
2023-05-18T13:18:15.737Z,2.4
2023-05-18T13:24:07.179Z,4.3
2023-05-18T13:29:59.634Z,2.7
2023-05-18T13:35:52.004Z,2.4
2023-05-18T13:41:44.875Z,2.7
2023-05-18T13:47:37.028Z,2.6
2023-05-18T13:53:29.229Z,2.7
2023-05-18T13:59:21.106Z,2.6
2023-05-18T14:05:13.780Z,2.5
2023-05-18T14:11:07.794Z,2.5
2023-05-18T14:17:00.716Z,2.4
2023-05-18T14:22:55.358Z,2.8
2023-05-18T14:28:47.074Z,2.4
2023-05-18T14:34:38.100Z,2.7
2023-05-18T14:40:31.963Z,2.6
2023-05-18T14:46:27.202Z,3
2023-05-18T14:52:20.028Z,2.7
2023-05-18T14:58:12.298Z,2.5
2023-05-18T15:04:08.785Z,2.4
2023-05-18T15:10:01.099Z,2.6
2023-05-18T15:15:53.087Z,2.6
2023-05-18T15:21:45.142Z,2.7
2023-05-18T15:27:37.157Z,2.4
2023-05-18T15:33:29.344Z,2.6
2023-05-18T15:39:21.544Z,2.7
2023-05-18T15:45:14.207Z,2.4
2023-05-18T15:51:06.645Z,2.5
2023-05-18T15:56:58.739Z,2.5
2023-05-18T16:02:51.704Z,2.4
2023-05-18T16:08:43.988Z,2.5
2023-05-18T16:14:36.367Z,2.5
2023-05-18T16:20:28.456Z,2.9
2023-05-18T16:26:20.840Z,2.6
2023-05-18T16:32:12.845Z,2.3
2023-05-18T16:38:05.568Z,2.5
2023-05-18T16:43:58.136Z,2.4
2023-05-18T16:51:00.563Z,2.9
2023-05-18T16:56:53.695Z,2.6
2023-05-18T17:02:46.410Z,2.4
2023-05-18T17:08:36.202Z,2.8
2023-05-18T17:14:29.433Z,2.6
2023-05-18T17:20:23.548Z,2.3
2023-05-18T17:26:18.056Z,2.5
2023-05-18T17:32:10.165Z,2.6
2023-05-18T17:38:02.170Z,3
2023-05-18T17:43:55.458Z,2.8
2023-05-18T17:49:49.233Z,3.1
2023-05-18T17:55:40.560Z,2.7
2023-05-18T18:01:34.556Z,2.9
2023-05-18T18:07:26.590Z,3
2023-05-18T18:13:18.754Z,2.9
2023-05-18T18:19:10.240Z,2.8
2023-05-18T18:25:03.836Z,2.8
2023-05-18T18:30:55.970Z,3
2023-05-18T18:36:49.436Z,2.6
2023-05-18T18:42:42.433Z,3.1
2023-05-18T18:48:35.792Z,3.2
2023-05-18T18:54:29.457Z,2.7
2023-05-18T19:00:22.539Z,3.6
2023-05-18T19:06:15.011Z,3.2
2023-05-18T19:12:07.917Z,3.4
2023-05-18T19:18:01.809Z,5.1
2023-05-18T19:23:52.977Z,3
2023-05-18T19:29:44.945Z,3.7
2023-05-18T19:35:37.791Z,3.3
2023-05-18T19:41:32.193Z,3.3
2023-05-18T19:47:25.725Z,3.3
2023-05-18T19:53:19.863Z,3.7
2023-05-18T19:59:11.414Z,3.8
2023-05-18T20:05:04.988Z,5.2
2023-05-18T20:10:58.020Z,3.3
2023-05-18T20:16:52.027Z,4.6
2023-05-18T20:22:45.158Z,4.6
2023-05-18T20:28:37.867Z,4.2
2023-05-18T20:34:29.983Z,3.8
2023-05-18T20:40:26.427Z,4.1
2023-05-18T20:46:19.538Z,4.1
2023-05-18T20:52:13.300Z,4
2023-05-18T20:58:05.666Z,3.7
2023-05-18T21:03:59.347Z,3.1
2023-05-18T21:09:51.869Z,2.7
2023-05-18T21:15:46.253Z,2.6
2023-05-18T21:21:37.313Z,3.1
2023-05-18T21:27:28.122Z,3.1
2023-05-18T21:33:20.752Z,2.6
2023-05-18T21:39:12.298Z,2.8
2023-05-18T21:45:05.466Z,3
2023-05-18T21:50:57.901Z,2.6
2023-05-18T21:56:49.895Z,2.9
2023-05-18T22:02:41.347Z,3.2
2023-05-18T22:08:33.344Z,3.8
2023-05-18T22:14:25.679Z,3.8
2023-05-18T22:20:25.948Z,2.9
2023-05-18T22:26:17.477Z,2.7
2023-05-18T22:32:09.665Z,3
2023-05-18T22:38:01.564Z,2.8
2023-05-18T22:43:54.016Z,2.7
2023-05-18T22:49:45.468Z,3
2023-05-18T22:55:37.477Z,2.9
2023-05-18T23:01:29.362Z,3
2023-05-18T23:07:20.241Z,3.1
2023-05-18T23:13:12.353Z,2.9
2023-05-18T23:19:05.311Z,3.3
2023-05-18T23:24:57.188Z,3.1
2023-05-18T23:30:48.892Z,3.4
2023-05-18T23:36:41.184Z,3
2023-05-18T23:42:31.018Z,3
2023-05-18T23:48:22.806Z,3.1
2023-05-18T23:54:14.774Z,2.6
